createdAt,value
2023-01-30T00:01:45.080Z,21.23
2023-01-30T00:04:17.154Z,19.03
2023-01-30T00:06:58.856Z,19.03
2023-01-30T00:09:27.318Z,20.73
2023-01-30T00:12:04.031Z,20.47
2023-01-30T00:14:38.885Z,20.00
2023-01-30T00:17:07.653Z,19.50
2023-01-30T00:19:42.888Z,20.23
2023-01-30T00:22:11.395Z,20.87
2023-01-30T00:24:45.946Z,20.03
2023-01-30T00:27:15.840Z,19.57
2023-01-30T00:32:39.267Z,19.70
2023-01-30T00:35:14.921Z,20.93
2023-01-30T00:37:43.313Z,20.10
2023-01-30T00:40:20.642Z,20.27
2023-01-30T00:43:07.623Z,20.40
2023-01-30T00:45:59.984Z,20.13
2023-01-30T00:48:28.916Z,20.43
2023-01-30T00:51:03.924Z,20.60
2023-01-30T00:53:32.416Z,20.97
2023-01-30T00:56:07.944Z,20.60
2023-01-30T00:58:37.530Z,20.63
2023-01-30T01:01:13.038Z,18.60
2023-01-30T01:03:41.751Z,20.57
2023-01-30T01:06:23.028Z,21.33
2023-01-30T01:08:51.419Z,20.53
2023-01-30T01:11:32.103Z,21.27
2023-01-30T01:14:06.259Z,19.73
2023-01-30T01:16:42.124Z,18.80
2023-01-30T01:19:10.930Z,18.47
2023-01-30T01:21:45.939Z,19.57
2023-01-30T01:24:15.944Z,18.63
2023-01-30T01:26:52.128Z,18.50
2023-01-30T01:29:22.088Z,18.77
2023-01-30T01:31:57.017Z,17.73
2023-01-30T01:34:25.306Z,17.40
2023-01-30T01:36:59.948Z,17.03
2023-01-30T01:39:49.002Z,16.17
2023-01-30T01:42:22.997Z,17.20
2023-01-30T01:45:18.931Z,16.47
2023-01-30T01:48:05.163Z,16.93
2023-01-30T01:50:42.234Z,15.53
2023-01-30T01:53:21.319Z,15.10
2023-01-30T01:55:53.792Z,14.70
2023-01-30T01:58:34.136Z,13.93
2023-01-30T02:01:06.879Z,14.20
2023-01-30T02:03:45.998Z,13.70
2023-01-30T02:06:23.773Z,13.80
2023-01-30T02:09:01.999Z,13.73
2023-01-30T02:11:38.554Z,14.23
2023-01-30T02:14:15.212Z,13.50
2023-01-30T02:16:48.061Z,12.73
2023-01-30T02:19:37.329Z,12.50
2023-01-30T02:22:35.028Z,13.13
2023-01-30T02:25:34.381Z,12.00
2023-01-30T02:28:48.155Z,12.80
2023-01-30T02:31:29.106Z,13.00
2023-01-30T02:34:18.158Z,11.87
2023-01-30T02:37:00.643Z,11.97
2023-01-30T02:39:49.045Z,12.93
2023-01-30T02:42:26.457Z,12.30
2023-01-30T02:45:10.246Z,12.10
2023-01-30T02:47:44.041Z,11.43
2023-01-30T02:50:22.109Z,12.63
2023-01-30T02:52:50.798Z,12.30
2023-01-30T02:55:31.098Z,12.10
2023-01-30T02:57:59.886Z,12.30
2023-01-30T03:00:47.019Z,11.60
2023-01-30T03:03:41.669Z,11.97
2023-01-30T03:06:39.041Z,12.43
2023-01-30T03:09:18.030Z,12.43
2023-01-30T03:11:57.056Z,12.47
2023-01-30T03:14:30.704Z,12.50
2023-01-30T03:17:08.102Z,12.33
2023-01-30T03:19:38.241Z,11.83
2023-01-30T03:22:13.091Z,11.70
2023-01-30T03:24:42.017Z,11.77
2023-01-30T03:27:20.118Z,12.33
2023-01-30T03:29:48.869Z,12.20
2023-01-30T03:32:24.053Z,11.93
2023-01-30T03:34:54.233Z,11.07
2023-01-30T03:37:32.172Z,10.93
2023-01-30T03:40:00.588Z,11.63
2023-01-30T03:42:36.302Z,10.83
2023-01-30T03:45:06.809Z,10.57
2023-01-30T03:47:44.539Z,11.57
2023-01-30T03:50:14.473Z,11.37
2023-01-30T03:52:49.147Z,10.40
2023-01-30T03:55:18.053Z,10.80
2023-01-30T03:57:53.150Z,10.20
2023-01-30T04:00:22.271Z,10.40
2023-01-30T04:03:05.501Z,10.47
2023-01-30T04:05:35.443Z,11.53
2023-01-30T04:08:11.138Z,11.37
2023-01-30T04:10:39.591Z,12.10
2023-01-30T04:13:15.245Z,12.37
2023-01-30T04:15:43.917Z,13.07
2023-01-30T04:18:19.158Z,12.50
2023-01-30T04:20:49.199Z,13.10
2023-01-30T04:23:24.115Z,13.80
2023-01-30T04:25:52.404Z,14.87
2023-01-30T04:28:27.061Z,13.20
2023-01-30T04:30:56.265Z,13.83
2023-01-30T04:33:31.165Z,14.60
2023-01-30T04:36:02.308Z,14.73
2023-01-30T04:38:38.277Z,14.17
2023-01-30T04:41:13.138Z,13.63
2023-01-30T04:43:41.512Z,14.77
2023-01-30T04:46:16.095Z,14.00
2023-01-30T04:48:44.673Z,14.20
2023-01-30T04:51:21.188Z,13.57
2023-01-30T04:53:49.705Z,14.33
2023-01-30T04:56:26.169Z,13.97
2023-01-30T04:58:54.472Z,12.83
2023-01-30T05:01:32.324Z,14.00
2023-01-30T05:04:07.396Z,12.80
2023-01-30T05:06:44.143Z,12.47
2023-01-30T05:09:12.660Z,12.70
2023-01-30T05:11:47.158Z,11.97
2023-01-30T05:14:15.852Z,12.43
2023-01-30T05:16:50.247Z,12.60
2023-01-30T05:19:19.246Z,12.90
2023-01-30T05:21:56.208Z,11.97
2023-01-30T05:24:24.767Z,12.83
2023-01-30T05:27:00.324Z,11.83
2023-01-30T05:29:28.858Z,11.40
2023-01-30T05:32:04.308Z,12.10
2023-01-30T05:34:39.153Z,11.67
2023-01-30T05:37:09.421Z,11.53
2023-01-30T05:39:44.344Z,11.70
2023-01-30T05:42:12.770Z,11.00
2023-01-30T05:44:48.383Z,11.50
2023-01-30T05:47:16.724Z,12.70
2023-01-30T05:49:51.274Z,11.40
2023-01-30T05:52:21.711Z,11.73
2023-01-30T05:54:56.200Z,11.37
2023-01-30T05:57:24.690Z,10.43
2023-01-30T05:59:59.239Z,12.03
2023-01-30T06:02:47.389Z,12.73
2023-01-30T06:05:22.422Z,12.00
2023-01-30T06:07:52.328Z,11.77
2023-01-30T06:10:27.224Z,11.70
2023-01-30T06:12:55.950Z,12.50
2023-01-30T06:15:31.355Z,11.60
2023-01-30T06:18:02.957Z,11.97
2023-01-30T06:20:38.398Z,12.77
2023-01-30T06:23:08.452Z,11.87
2023-01-30T06:25:43.501Z,10.30
2023-01-30T06:28:11.775Z,10.67
2023-01-30T06:30:46.245Z,9.67
2023-01-30T06:33:14.794Z,10.83
2023-01-30T06:35:51.196Z,10.00
2023-01-30T06:38:21.575Z,10.80
2023-01-30T06:40:58.547Z,10.30
2023-01-30T06:43:27.157Z,10.40
2023-01-30T06:46:02.282Z,10.57
2023-01-30T06:48:30.848Z,9.97
2023-01-30T06:51:06.258Z,9.20
2023-01-30T06:53:36.094Z,9.90
2023-01-30T06:56:11.551Z,10.47
2023-01-30T06:58:39.803Z,10.47
2023-01-30T07:01:14.304Z,10.23
2023-01-30T07:04:02.327Z,8.97
2023-01-30T07:06:38.584Z,8.83
2023-01-30T07:09:09.570Z,9.03
2023-01-30T07:11:44.299Z,7.90
2023-01-30T07:14:12.848Z,8.53
2023-01-30T07:16:48.387Z,8.00
2023-01-30T07:19:16.724Z,8.93
2023-01-30T07:21:51.232Z,8.50
2023-01-30T07:24:21.705Z,7.70
2023-01-30T07:26:57.237Z,7.93
2023-01-30T07:29:25.811Z,6.90
2023-01-30T07:32:01.453Z,7.33
2023-01-30T07:34:29.853Z,7.43
2023-01-30T07:37:05.281Z,7.30
2023-01-30T07:39:36.500Z,8.27
2023-01-30T07:42:12.446Z,7.73
2023-01-30T07:44:40.825Z,7.23
2023-01-30T07:47:15.309Z,6.97
2023-01-30T07:49:43.779Z,6.33
2023-01-30T07:52:18.469Z,7.37
2023-01-30T07:54:48.628Z,7.80
2023-01-30T07:57:23.385Z,6.57
2023-01-30T07:59:51.907Z,6.60
2023-01-30T08:02:27.563Z,6.03
2023-01-30T08:05:03.971Z,6.60
2023-01-30T08:07:40.545Z,5.60
2023-01-30T08:10:12.466Z,5.97
2023-01-30T08:12:48.365Z,6.07
2023-01-30T08:15:17.001Z,6.00
2023-01-30T08:17:52.397Z,5.70
2023-01-30T08:20:21.559Z,5.50
2023-01-30T08:22:56.436Z,4.83
2023-01-30T08:25:26.545Z,5.20
2023-01-30T08:28:01.520Z,5.90
2023-01-30T08:30:31.591Z,6.00
2023-01-30T08:33:07.506Z,5.23
2023-01-30T08:35:35.996Z,5.00
2023-01-30T08:38:13.366Z,4.93
2023-01-30T08:40:44.103Z,3.87
2023-01-30T08:43:19.498Z,3.90
2023-01-30T08:45:48.120Z,4.23
2023-01-30T08:48:23.366Z,3.93
2023-01-30T08:50:54.444Z,4.10
2023-01-30T08:53:30.495Z,3.13
2023-01-30T08:56:00.699Z,3.27
2023-01-30T08:58:35.488Z,3.70
2023-01-30T09:01:07.728Z,3.37
2023-01-30T09:03:43.487Z,3.67
2023-01-30T09:06:18.824Z,4.50
2023-01-30T09:08:53.366Z,3.30
2023-01-30T09:11:23.590Z,2.97
2023-01-30T09:13:58.565Z,3.20
2023-01-30T09:16:27.384Z,3.57
2023-01-30T09:19:02.545Z,4.30
2023-01-30T09:21:32.200Z,4.27
2023-01-30T09:24:07.542Z,4.53
2023-01-30T09:26:37.723Z,3.57
2023-01-30T09:29:12.450Z,4.17
2023-01-30T09:31:40.857Z,3.77
2023-01-30T09:34:16.592Z,3.90
2023-01-30T09:36:45.179Z,3.70
2023-01-30T09:39:20.393Z,4.13
2023-01-30T09:42:28.377Z,2.90
2023-01-30T09:45:28.366Z,3.30
2023-01-30T09:48:12.431Z,3.40
2023-01-30T09:51:03.155Z,3.40
2023-01-30T09:53:44.550Z,2.87
2023-01-30T09:56:13.024Z,2.97
2023-01-30T09:58:57.341Z,3.20
2023-01-30T10:01:32.771Z,2.90
2023-01-30T10:04:22.601Z,3.00
2023-01-30T10:07:09.733Z,3.00
2023-01-30T10:09:53.394Z,2.93
2023-01-30T10:12:42.167Z,3.10
2023-01-30T10:15:45.673Z,3.70
2023-01-30T10:18:43.126Z,3.43
2023-01-30T10:21:26.416Z,3.37
2023-01-30T10:24:31.797Z,3.17
2023-01-30T10:27:06.633Z,3.50
2023-01-30T10:29:39.427Z,2.47
2023-01-30T10:32:24.502Z,3.20
2023-01-30T10:34:55.609Z,3.43
2023-01-30T10:37:40.970Z,2.93
2023-01-30T10:40:20.131Z,3.50
2023-01-30T10:43:01.499Z,3.00
2023-01-30T10:45:36.606Z,2.97
2023-01-30T10:48:42.599Z,3.07
2023-01-30T10:51:29.667Z,3.30
2023-01-30T10:54:02.487Z,3.00
2023-01-30T10:56:45.627Z,3.60
2023-01-30T10:59:24.561Z,3.37
2023-01-30T11:02:06.555Z,2.73
2023-01-30T11:04:48.575Z,2.83
2023-01-30T11:07:24.464Z,3.10
2023-01-30T11:09:52.997Z,2.57
2023-01-30T11:12:27.587Z,2.50
2023-01-30T11:14:59.855Z,3.00
2023-01-30T11:17:42.397Z,2.80
2023-01-30T11:20:18.645Z,3.37
2023-01-30T11:22:55.596Z,3.00
2023-01-30T11:25:24.784Z,2.63
2023-01-30T11:28:04.635Z,2.50
2023-01-30T11:30:37.222Z,2.90
2023-01-30T11:33:20.479Z,2.50
2023-01-30T11:35:57.353Z,3.47
2023-01-30T11:38:35.834Z,3.40
2023-01-30T11:41:09.956Z,2.43
2023-01-30T11:43:47.669Z,2.97
2023-01-30T11:46:19.710Z,3.43
2023-01-30T11:49:09.118Z,2.23
2023-01-30T11:51:55.594Z,2.90
2023-01-30T11:54:38.512Z,2.50
2023-01-30T11:57:11.425Z,3.13
2023-01-30T11:59:52.489Z,3.23
2023-01-30T12:02:24.954Z,3.23
2023-01-30T12:05:09.562Z,3.47
2023-01-30T12:07:47.836Z,2.97
2023-01-30T12:10:35.489Z,2.97
2023-01-30T12:13:26.305Z,2.53
2023-01-30T12:16:24.568Z,2.50
2023-01-30T12:19:02.241Z,2.20
2023-01-30T12:21:45.558Z,2.50
2023-01-30T12:24:23.522Z,3.20
2023-01-30T12:27:09.570Z,2.53
2023-01-30T12:29:43.546Z,1.90
2023-01-30T12:32:23.693Z,4.10
2023-01-30T12:34:52.817Z,3.13
2023-01-30T12:37:45.527Z,3.17
2023-01-30T12:40:25.972Z,2.37
2023-01-30T12:43:17.487Z,2.80
2023-01-30T12:45:56.200Z,2.60
2023-01-30T12:49:11.976Z,3.40
2023-01-30T12:52:01.782Z,2.33
2023-01-30T12:54:53.609Z,2.03
2023-01-30T12:57:35.334Z,2.80
2023-01-30T13:00:25.573Z,2.30
2023-01-30T13:03:15.981Z,2.63
2023-01-30T13:06:15.767Z,3.47
2023-01-30T13:09:11.616Z,2.57
2023-01-30T13:11:51.704Z,2.63
2023-01-30T13:14:34.735Z,3.00
2023-01-30T13:17:34.664Z,3.10
2023-01-30T13:20:16.886Z,2.43
2023-01-30T13:22:54.605Z,2.97
2023-01-30T13:25:38.915Z,3.13
2023-01-30T13:28:14.431Z,3.30
2023-01-30T13:30:53.660Z,3.00
2023-01-30T13:33:25.811Z,2.60
2023-01-30T13:36:04.760Z,2.70
2023-01-30T13:38:36.622Z,2.50
2023-01-30T13:41:13.550Z,2.60
2023-01-30T13:43:46.873Z,3.03
2023-01-30T13:46:31.710Z,2.43
2023-01-30T13:49:09.084Z,3.23
2023-01-30T13:51:58.588Z,2.83
2023-01-30T13:54:40.769Z,2.47
2023-01-30T13:57:27.814Z,2.90
2023-01-30T14:00:20.380Z,2.50
2023-01-30T14:03:32.817Z,3.50
2023-01-30T14:06:28.883Z,2.50
2023-01-30T14:09:06.716Z,2.70
2023-01-30T14:11:39.525Z,3.20
2023-01-30T14:14:33.705Z,2.97
2023-01-30T14:17:17.678Z,2.67
2023-01-30T14:20:03.615Z,2.57
2023-01-30T14:22:43.051Z,2.40
2023-01-30T14:25:41.780Z,2.50
2023-01-30T14:28:52.908Z,2.40
2023-01-30T14:32:01.854Z,2.93
2023-01-30T14:35:14.158Z,2.00
2023-01-30T14:38:25.124Z,2.30
2023-01-30T14:41:26.871Z,3.03
2023-01-30T14:44:02.646Z,3.10
2023-01-30T14:46:54.290Z,2.93
2023-01-30T14:49:51.785Z,3.07
2023-01-30T14:52:39.678Z,3.20
2023-01-30T14:55:20.584Z,2.50
2023-01-30T14:58:03.614Z,3.70
2023-01-30T15:00:36.473Z,2.67
2023-01-30T15:03:15.627Z,2.77
2023-01-30T15:05:50.810Z,2.90
2023-01-30T15:08:29.764Z,2.50
2023-01-30T15:11:18.846Z,3.13
2023-01-30T15:14:14.772Z,3.60
2023-01-30T15:17:07.900Z,2.40
2023-01-30T15:20:13.888Z,2.53
2023-01-30T15:22:59.809Z,2.83
2023-01-30T15:25:47.051Z,3.10
2023-01-30T15:28:35.972Z,3.53
2023-01-30T15:31:25.714Z,2.63
2023-01-30T15:33:56.958Z,3.70
2023-01-30T15:36:34.759Z,3.57
2023-01-30T15:39:06.709Z,2.80
2023-01-30T15:41:45.690Z,3.63
2023-01-30T15:44:44.771Z,3.60
2023-01-30T15:47:44.686Z,3.50
2023-01-30T15:50:13.169Z,3.03
2023-01-30T15:52:51.716Z,4.17
2023-01-30T15:55:31.305Z,3.83
2023-01-30T15:58:10.830Z,3.17
2023-01-30T16:00:50.818Z,4.03
2023-01-30T16:03:30.041Z,3.50
2023-01-30T16:06:06.752Z,3.27
2023-01-30T16:08:43.848Z,3.60
2023-01-30T16:11:13.914Z,3.33
2023-01-30T16:13:49.689Z,3.37
2023-01-30T16:16:21.761Z,3.30
2023-01-30T16:18:59.830Z,4.20
2023-01-30T16:21:33.640Z,3.20
2023-01-30T16:24:11.845Z,3.20
2023-01-30T16:26:44.724Z,3.23
2023-01-30T16:29:23.735Z,3.43
2023-01-30T16:31:55.861Z,2.83
2023-01-30T16:34:37.731Z,2.67
2023-01-30T16:37:09.516Z,2.43
2023-01-30T16:39:45.945Z,2.50
2023-01-30T16:42:27.992Z,2.47
2023-01-30T16:45:19.263Z,2.60
2023-01-30T16:47:49.808Z,2.93
2023-01-30T16:50:27.940Z,2.97
2023-01-30T16:52:57.677Z,3.03
2023-01-30T16:55:37.760Z,3.20
2023-01-30T16:58:15.435Z,2.90
2023-01-30T17:00:53.670Z,3.67
2023-01-30T17:03:29.810Z,3.33
2023-01-30T17:06:18.924Z,3.17
2023-01-30T17:08:54.521Z,3.50
2023-01-30T17:11:40.923Z,3.60
2023-01-30T17:14:21.923Z,3.50
2023-01-30T17:17:09.980Z,3.70
2023-01-30T17:19:39.875Z,3.97
2023-01-30T17:22:16.759Z,5.77
2023-01-30T17:24:45.252Z,4.50
2023-01-30T17:27:19.911Z,4.27
2023-01-30T17:29:52.123Z,4.47
2023-01-30T17:32:26.819Z,3.60
2023-01-30T17:34:56.951Z,4.20
2023-01-30T17:37:31.830Z,4.37
2023-01-30T17:40:02.649Z,4.13
2023-01-30T17:42:37.882Z,3.60
2023-01-30T17:45:07.203Z,4.13
2023-01-30T17:47:41.941Z,4.00
2023-01-30T17:50:15.679Z,4.30
2023-01-30T17:52:50.860Z,5.60
2023-01-30T17:55:20.016Z,9.47
2023-01-30T17:57:56.985Z,5.43
2023-01-30T18:00:25.689Z,4.70
2023-01-30T18:03:01.078Z,3.83
2023-01-30T18:05:38.059Z,4.20
2023-01-30T18:08:12.945Z,3.60
2023-01-30T18:10:41.724Z,3.93
2023-01-30T18:13:16.968Z,4.60
2023-01-30T18:15:45.463Z,4.93
2023-01-30T18:18:22.993Z,4.80
2023-01-30T18:20:52.791Z,4.17
2023-01-30T18:23:27.976Z,4.80
2023-01-30T18:25:56.382Z,5.70
2023-01-30T18:28:31.847Z,4.30
2023-01-30T18:31:00.372Z,4.13
2023-01-30T18:33:34.966Z,4.37
2023-01-30T18:36:08.015Z,4.63
2023-01-30T18:38:43.208Z,4.40
2023-01-30T18:41:12.942Z,3.67
2023-01-30T18:43:48.025Z,5.27
2023-01-30T18:46:18.738Z,4.37
2023-01-30T18:48:55.010Z,11.37
2023-01-30T18:51:26.560Z,8.83
2023-01-30T18:54:02.884Z,4.63
2023-01-30T18:56:33.349Z,4.87
2023-01-30T18:59:11.106Z,4.13
2023-01-30T19:01:42.596Z,4.37
2023-01-30T19:04:18.945Z,5.53
2023-01-30T19:06:48.811Z,4.97
2023-01-30T19:09:26.105Z,4.10
2023-01-30T19:12:11.826Z,4.50
2023-01-30T19:14:47.039Z,4.50
2023-01-30T19:17:16.678Z,4.23
2023-01-30T19:19:52.880Z,4.50
2023-01-30T19:22:22.748Z,4.53
2023-01-30T19:24:57.964Z,4.53
2023-01-30T19:27:26.502Z,4.77
2023-01-30T19:30:02.049Z,5.00
2023-01-30T19:32:30.866Z,3.83
2023-01-30T19:35:05.980Z,3.93
2023-01-30T19:37:36.104Z,5.13
2023-01-30T19:40:17.419Z,4.90
2023-01-30T19:42:46.576Z,4.20
2023-01-30T19:45:21.884Z,4.10
2023-01-30T19:47:50.707Z,4.23
2023-01-30T19:50:26.081Z,4.60
2023-01-30T19:53:08.800Z,4.90
2023-01-30T19:55:43.961Z,4.17
2023-01-30T19:58:12.471Z,4.53
2023-01-30T20:00:48.146Z,4.83
2023-01-30T20:03:16.814Z,4.50
2023-01-30T20:05:59.064Z,4.07
2023-01-30T20:08:36.559Z,4.50
2023-01-30T20:11:13.070Z,4.60
2023-01-30T20:13:43.361Z,4.77
2023-01-30T20:16:21.037Z,5.00
2023-01-30T20:18:50.741Z,4.00
2023-01-30T20:21:28.075Z,4.87
2023-01-30T20:23:58.892Z,4.23
2023-01-30T20:26:38.364Z,3.97
2023-01-30T20:29:09.604Z,3.63
2023-01-30T20:31:46.070Z,4.43
2023-01-30T20:34:15.557Z,4.27
2023-01-30T20:36:50.971Z,3.87
2023-01-30T20:39:22.233Z,3.73
2023-01-30T20:41:56.955Z,3.90
2023-01-30T20:44:25.836Z,3.80
2023-01-30T20:47:01.151Z,3.70
2023-01-30T20:49:30.663Z,4.47
2023-01-30T20:52:05.333Z,3.60
2023-01-30T20:54:42.173Z,4.00
2023-01-30T20:57:10.966Z,4.10
2023-01-30T20:59:45.968Z,4.43
2023-01-30T21:02:14.401Z,4.90
2023-01-30T21:04:56.264Z,3.77
2023-01-30T21:07:31.421Z,4.80
2023-01-30T21:10:08.019Z,4.43
2023-01-30T21:12:36.966Z,4.00
2023-01-30T21:15:11.989Z,4.37
2023-01-30T21:17:40.831Z,3.57
2023-01-30T21:20:17.053Z,4.20
2023-01-30T21:22:46.010Z,4.53
2023-01-30T21:25:22.187Z,3.83
2023-01-30T21:27:50.564Z,4.50
2023-01-30T21:30:26.235Z,3.70
2023-01-30T21:32:55.093Z,4.17
2023-01-30T21:35:30.129Z,4.80
2023-01-30T21:38:15.632Z,5.23
2023-01-30T21:41:14.150Z,5.77
2023-01-30T21:43:42.612Z,4.00
2023-01-30T21:46:17.007Z,4.40
2023-01-30T21:48:45.919Z,3.67
2023-01-30T21:51:21.177Z,4.23
2023-01-30T21:53:49.834Z,4.90
2023-01-30T21:56:26.015Z,4.80
2023-01-30T21:58:55.925Z,4.87
2023-01-30T22:01:31.224Z,4.50
2023-01-30T22:04:01.449Z,4.60
2023-01-30T22:06:44.099Z,4.90
2023-01-30T22:09:15.956Z,4.67
2023-01-30T22:11:53.171Z,4.43
2023-01-30T22:14:22.345Z,4.60
2023-01-30T22:16:57.098Z,4.87
2023-01-30T22:19:25.477Z,5.20
2023-01-30T22:22:01.389Z,5.27
2023-01-30T22:24:30.202Z,4.53
2023-01-30T22:27:07.233Z,5.20
2023-01-30T22:29:36.137Z,4.70
2023-01-30T22:32:11.033Z,5.03
2023-01-30T22:34:39.370Z,4.67
2023-01-30T22:37:14.220Z,5.37
2023-01-30T22:39:42.541Z,5.43
2023-01-30T22:42:19.070Z,4.97
2023-01-30T22:44:47.394Z,5.63
2023-01-30T22:47:22.241Z,4.90
2023-01-30T22:49:50.636Z,4.83
2023-01-30T22:52:26.033Z,5.57
2023-01-30T22:54:54.444Z,5.67
2023-01-30T22:57:31.231Z,6.23
2023-01-30T22:59:59.683Z,6.13
2023-01-30T23:02:34.173Z,5.57
2023-01-30T23:05:09.690Z,5.70
2023-01-30T23:07:45.067Z,5.40
2023-01-30T23:10:13.445Z,5.63
2023-01-30T23:13:07.078Z,6.50
2023-01-30T23:15:39.327Z,6.23
2023-01-30T23:18:32.227Z,5.43
2023-01-30T23:21:01.514Z,6.67
2023-01-30T23:23:36.608Z,5.87
2023-01-30T23:26:05.495Z,5.77
2023-01-30T23:28:43.226Z,6.03
2023-01-30T23:31:15.020Z,6.00
2023-01-30T23:33:50.170Z,7.43
2023-01-30T23:36:18.932Z,6.07
2023-01-30T23:38:57.085Z,6.40
2023-01-30T23:41:27.138Z,6.33
2023-01-30T23:44:05.429Z,6.50
2023-01-30T23:46:35.315Z,6.27
2023-01-30T23:49:13.171Z,6.07
2023-01-30T23:51:43.314Z,6.10
2023-01-30T23:54:20.176Z,7.50
2023-01-30T23:56:48.826Z,6.90
2023-01-30T23:59:25.257Z,6.30
